Time;durP1;ratioP1;P1;durP2;ratioP2;P2;SDS_P1;SDS_P2;PMS_P1;PMS_P2;Temp;Humidity;BMP_temperature;BMP_pressure;BME280_temperature;BME280_humidity;BME280_pressure;Samples;Min_cycle;Max_cycle;Signal;HPM_P1;HPM_P2
2023/05/02 00:01:20;;;;;;;7.88;3.45;;;10.70;99.90;;;;;;5008885;28;20076;-55
2023/05/02 00:03:45;;;;;;;10.32;3.70;;;10.90;99.90;;;;;;5011541;28;20038;-55
2023/05/02 00:06:11;;;;;;;9.02;3.97;;;10.60;99.90;;;;;;5009773;28;20042;-56
2023/05/02 00:08:37;;;;;;;11.45;4.25;;;10.50;99.90;;;;;;5011069;28;20091;-56
2023/05/02 00:11:02;;;;;;;7.78;3.22;;;10.40;99.90;;;;;;5011492;28;20065;-52
2023/05/02 00:13:28;;;;;;;6.97;3.05;;;10.40;99.90;;;;;;5009944;28;20026;-55
2023/05/02 00:15:54;;;;;;;8.25;2.92;;;10.60;99.90;;;;;;5011159;28;20056;-56
2023/05/02 00:18:19;;;;;;;7.70;3.03;;;10.40;99.90;;;;;;5010141;28;20145;-55
2023/05/02 00:20:45;;;;;;;9.15;2.88;;;10.40;99.90;;;;;;5010002;28;20041;-53
2023/05/02 00:23:12;;;;;;;9.63;3.15;;;9.80;99.90;;;;;;5010959;28;20133;-54
2023/05/02 00:25:44;;;;;;;8.48;3.20;;;9.80;99.90;;;;;;5010874;28;20176;-55
2023/05/02 00:28:09;;;;;;;8.05;2.92;;;10.70;99.90;;;;;;5006722;28;20117;-57
2023/05/02 00:30:35;;;;;;;7.80;2.67;;;10.60;99.90;;;;;;5010137;28;20129;-52
2023/05/02 00:33:01;;;;;;;6.63;2.95;;;10.30;99.90;;;;;;5009076;28;20385;-55
2023/05/02 00:35:26;;;;;;;7.68;2.60;;;10.40;99.90;;;;;;5010494;28;20144;-55
2023/05/02 00:37:52;;;;;;;8.70;2.90;;;10.40;99.90;;;;;;5010576;28;20036;-57
2023/05/02 00:40:18;;;;;;;8.73;3.10;;;9.90;97.70;;;;;;5010360;28;20037;-54
2023/05/02 00:42:43;;;;;;;10.13;3.40;;;10.50;99.90;;;;;;5009978;28;20092;-57
2023/05/02 00:45:09;;;;;;;14.05;3.90;;;10.40;99.90;;;;;;5009627;28;20099;-54
2023/05/02 00:47:35;;;;;;;10.45;3.97;;;10.30;99.90;;;;;;5009666;28;20041;-52
2023/05/02 00:50:01;;;;;;;17.70;5.03;;;10.40;99.90;;;;;;5010662;28;20038;-54
2023/05/02 00:52:27;;;;;;;12.32;4.43;;;;;;;;;;5007969;28;20122;-53
2023/05/02 00:54:53;;;;;;;17.15;4.10;;;10.40;99.90;;;;;;5006869;28;20034;-58
2023/05/02 00:57:19;;;;;;;12.77;3.83;;;10.40;99.90;;;;;;4986062;28;20048;-54
2023/05/02 00:59:46;;;;;;;11.48;4.43;;;;;;;;;;5000023;28;20030;-53
2023/05/02 01:02:24;;;;;;;19.05;5.32;;;;;;;;;;4989655;28;20042;-56
2023/05/02 01:04:58;;;;;;;15.73;4.50;;;;;;;;;;4994642;28;20080;-57
2023/05/02 01:07:39;;;;;;;18.00;4.70;;;9.80;99.90;;;;;;4994851;28;20824;-57
2023/05/02 01:10:09;;;;;;;16.60;4.97;;;;;;;;;;4994337;28;20095;-56
2023/05/02 01:12:41;;;;;;;12.82;4.30;;;;;;;;;;4994775;28;20049;-56
2023/05/02 01:15:09;;;;;;;17.20;5.78;;;;;;;;;;4994896;28;20045;-56
2023/05/02 01:17:36;;;;;;;18.98;4.63;;;;;;;;;;4994398;28;20042;-53
2023/05/02 01:20:04;;;;;;;13.52;4.07;;;;;;;;;;4995954;28;20041;-55
2023/05/02 01:22:31;;;;;;;12.25;3.60;;;;;;;;;;4995560;28;20087;-55
2023/05/02 01:25:18;;;;;;;10.32;3.38;;;;;;;;;;4996289;28;20054;-55
2023/05/02 01:27:53;;;;;;;15.35;3.70;;;;;;;;;;4979905;28;20089;-58
2023/05/02 01:30:20;;;;;;;15.95;4.50;;;;;;;;;;4971877;28;20049;-56
2023/05/02 01:32:47;;;;;;;17.67;5.43;;;;;;;;;;4992948;28;20043;-57
2023/05/02 01:35:15;;;;;;;15.32;4.50;;;;;;;;;;4995972;28;20363;-57
2023/05/02 01:37:42;;;;;;;17.73;4.90;;;;;;;;;;4993133;28;20049;-58
2023/05/02 01:40:09;;;;;;;14.50;4.82;;;;;;;;;;4995775;28;20476;-55
2023/05/02 01:42:36;;;;;;;16.23;4.63;;;;;;;;;;4993692;28;20045;-55
2023/05/02 01:45:03;;;;;;;15.50;4.50;;;;;;;;;;4994339;28;20495;-57
2023/05/02 01:47:30;;;;;;;17.80;4.38;;;;;;;;;;4994039;28;20513;-57
2023/05/02 01:49:57;;;;;;;13.27;4.47;;;;;;;;;;4993061;28;20530;-53
2023/05/02 01:52:24;;;;;;;14.68;4.43;;;;;;;;;;4994604;28;20058;-57
2023/05/02 01:54:51;;;;;;;17.40;4.75;;;;;;;;;;4995604;28;20837;-55
2023/05/02 01:57:18;;;;;;;15.77;4.65;;;;;;;;;;4995141;28;20046;-53
2023/05/02 01:59:45;;;;;;;16.33;5.57;;;;;;;;;;4993436;28;20211;-55
2023/05/02 02:02:12;;;;;;;14.85;5.13;;;;;;;;;;4994040;28;20041;-56
2023/05/02 02:04:39;;;;;;;14.80;5.22;;;;;;;;;;4991152;28;20049;-56
2023/05/02 02:07:09;;;;;;;16.02;4.68;;;;;;;;;;4991765;28;20788;-55
2023/05/02 02:09:34;;;;;;;17.05;4.47;;;9.50;1.00;;;;;;4992140;28;20124;-56
2023/05/02 02:12:06;;;;;;;15.85;4.50;;;;;;;;;;4993409;28;20487;-57
2023/05/02 02:14:39;;;;;;;20.85;5.25;;;;;;;;;;4993798;28;20038;-56
2023/05/02 02:17:10;;;;;;;16.85;5.00;;;;;;;;;;4988898;28;20038;-56
2023/05/02 02:19:38;;;;;;;19.10;4.47;;;;;;;;;;4994792;28;20045;-53
2023/05/02 02:22:04;;;;;;;14.35;4.50;;;;;;;;;;4994848;28;20512;-56
2023/05/02 02:24:32;;;;;;;15.60;4.22;;;;;;;;;;4993561;28;20570;-56
2023/05/02 02:26:58;;;;;;;13.88;3.45;;;;;;;;;;4994391;28;20137;-56
2023/05/02 02:29:24;;;;;;;15.25;4.50;;;;;;;;;;4993532;28;20117;-58
2023/05/02 02:31:50;;;;;;;14.15;4.07;;;;;;;;;;4992995;28;20049;-57
2023/05/02 02:34:16;;;;;;;14.95;4.72;;;;;;;;;;4995791;28;20456;-56
2023/05/02 02:36:47;;;;;;;10.93;3.20;;;;;;;;;;4988594;28;20074;-57
2023/05/02 02:39:21;;;;;;;14.75;3.80;;;;;;;;;;4995040;28;20056;-57
2023/05/02 02:42:08;;;;;;;8.53;3.53;;;;;;;;;;4993225;28;20038;-55
2023/05/02 02:44:43;;;;;;;14.68;4.22;;;;;;;;;;4996913;28;20050;-58
2023/05/02 02:47:11;;;;;;;14.18;4.35;;;;;;;;;;4997949;28;20044;-57
2023/05/02 02:50:00;;;;;;;13.93;4.93;;;;;;;;;;4997999;28;20855;-55
2023/05/02 02:52:32;;;;;;;14.65;4.03;;;9.00;99.90;;;;;;4979421;28;20053;-56
2023/05/02 02:55:07;;;;;;;11.73;4.63;;;;;;;;;;4999029;28;20033;-57
2023/05/02 02:57:45;;;;;;;10.05;3.95;;;;;;;;;;4997669;28;20566;-56
2023/05/02 03:00:13;;;;;;;18.92;4.43;;;;;;;;;;4998210;28;20052;-56
2023/05/02 03:02:41;;;;;;;14.45;3.55;;;;;;;;;;4996669;28;20041;-53
2023/05/02 03:05:08;;;;;;;9.25;3.30;;;;;;;;;;4998885;28;20865;-52
2023/05/02 03:07:35;;;;;;;15.50;3.33;;;;;;;;;;4997329;28;20041;-56
2023/05/02 03:10:03;;;;;;;9.50;2.97;;;;;;;;;;4998967;28;20042;-55
2023/05/02 03:12:29;;;;;;;14.35;3.10;;;;;;;;;;4994796;28;20050;-56
2023/05/02 03:15:02;;;;;;;11.93;4.15;;;;;;;;;;4997815;28;20064;-56
2023/05/02 03:17:28;;;;;;;13.82;3.53;;;;;;;;;;4996031;28;20050;-54
2023/05/02 03:19:54;;;;;;;16.13;3.97;;;;;;;;;;4998296;28;20057;-57
2023/05/02 03:22:20;;;;;;;9.27;2.70;;;;;;;;;;4998411;28;20113;-56
2023/05/02 03:24:46;;;;;;;11.13;3.38;;;;;;;;;;4997852;28;20045;-57
2023/05/02 03:27:12;;;;;;;13.77;3.70;;;;;;;;;;4997439;28;20561;-54
2023/05/02 03:29:38;;;;;;;10.88;3.10;;;;;;;;;;4997918;28;20172;-56
2023/05/02 03:32:04;;;;;;;13.52;4.60;;;8.70;99.90;;;;;;4997558;28;20041;-55
2023/05/02 03:34:30;;;;;;;12.98;3.13;;;;;;;;;;4998096;28;20049;-55
2023/05/02 03:36:56;;;;;;;12.82;3.03;;;;;;;;;;4997293;28;20033;-58
2023/05/02 03:39:21;;;;;;;13.25;3.13;;;8.70;99.90;;;;;;4994065;28;20041;-55
2023/05/02 03:41:47;;;;;;;14.18;3.22;;;;;;;;;;4996385;28;20041;-56
2023/05/02 03:44:13;;;;;;;13.20;3.42;;;;;;;;;;4998381;28;20046;-55
2023/05/02 03:46:39;;;;;;;14.10;2.85;;;;;;;;;;4996542;28;20057;-54
2023/05/02 03:49:05;;;;;;;6.95;2.75;;;;;;;;;;4996801;28;20544;-55
2023/05/02 03:51:32;;;;;;;10.15;2.80;;;;;;;;;;4994095;28;20042;-57
2023/05/02 03:53:59;;;;;;;11.13;2.72;;;;;;;;;;4996747;28;20121;-55
2023/05/02 03:56:25;;;;;;;6.90;2.20;;;;;;;;;;4994676;28;20042;-57
2023/05/02 03:58:51;;;;;;;7.13;2.65;;;;;;;;;;4996369;28;20041;-55
2023/05/02 04:01:17;;;;;;;8.70;2.13;;;;;;;;;;4997698;28;20153;-57
2023/05/02 04:03:43;;;;;;;11.20;2.30;;;;;;;;;;4992373;28;20706;-57
2023/05/02 04:06:09;;;;;;;6.65;2.05;;;;;;;;;;4985982;28;20029;-56
2023/05/02 04:08:36;;;;;;;7.28;2.25;;;;;;;;;;4992845;28;20788;-58
2023/05/02 04:11:02;;;;;;;11.13;2.17;;;;;;;;;;4996656;28;20518;-56
2023/05/02 04:13:28;;;;;;;8.27;2.45;;;;;;;;;;4992081;28;20050;-55
2023/05/02 04:15:54;;;;;;;9.88;2.83;;;;;;;;;;4996756;28;20232;-57
2023/05/02 04:18:20;;;;;;;10.02;2.60;;;;;;;;;;4997157;28;20133;-57
2023/05/02 04:20:46;;;;;;;11.77;2.28;;;;;;;;;;4995482;28;20049;-53
2023/05/02 04:23:13;;;;;;;6.35;1.95;;;;;;;;;;4991183;28;20034;-58
2023/05/02 04:25:39;;;;;;;8.30;2.58;;;;;;;;;;4992888;28;20057;-56
2023/05/02 04:28:05;;;;;;;9.07;2.00;;;;;;;;;;4990313;28;20037;-55
2023/05/02 04:30:31;;;;;;;8.05;1.98;;;;;;;;;;4995933;28;20042;-56
2023/05/02 04:32:57;;;;;;;6.80;1.92;;;;;;;;;;4996364;28;20084;-56
2023/05/02 04:35:23;;;;;;;8.68;1.90;;;;;;;;;;4996653;28;20802;-57
2023/05/02 04:37:49;;;;;;;6.53;2.13;;;;;;;;;;4994133;28;20034;-57
2023/05/02 04:40:15;;;;;;;11.07;2.55;;;;;;;;;;4997083;28;20045;-56
2023/05/02 04:42:41;;;;;;;8.98;2.60;;;;;;;;;;4996296;28;20132;-58
2023/05/02 04:45:08;;;;;;;9.63;2.65;;;;;;;;;;4997267;28;20056;-56
2023/05/02 04:47:34;;;;;;;9.63;3.00;;;;;;;;;;4995397;28;20055;-57
2023/05/02 04:50:00;;;;;;;12.95;3.05;;;;;;;;;;4981361;28;20081;-57
2023/05/02 04:52:26;;;;;;;8.18;2.25;;;;;;;;;;4981078;28;20091;-57
2023/05/02 04:54:52;;;;;;;10.32;2.33;;;;;;;;;;4981693;28;20276;-52
2023/05/02 04:57:18;;;;;;;7.85;2.08;;;;;;;;;;4989633;28;20049;-54
2023/05/02 04:59:44;;;;;;;9.20;2.72;;;;;;;;;;4976901;28;20034;-55
2023/05/02 05:02:11;;;;;;;13.52;2.80;;;;;;;;;;4993880;28;20034;-56
2023/05/02 05:04:37;;;;;;;6.70;2.35;;;;;;;;;;4993955;28;20052;-56
2023/05/02 05:07:03;;;;;;;8.23;2.67;;;;;;;;;;4995007;28;20038;-55
2023/05/02 05:09:29;;;;;;;12.57;2.40;;;;;;;;;;4994057;28;20073;-55
2023/05/02 05:11:55;;;;;;;8.52;2.65;;;8.10;99.90;;;;;;4995886;28;20052;-55
2023/05/02 05:14:21;;;;;;;9.65;2.35;;;;;;;;;;4986594;28;20069;-55
2023/05/02 05:16:47;;;;;;;6.07;2.03;;;;;;;;;;4993655;28;20042;-52
2023/05/02 05:19:13;;;;;;;8.55;2.55;;;8.30;99.90;;;;;;4995361;28;20065;-55
2023/05/02 05:21:39;;;;;;;6.05;2.50;;;;;;;;;;4994676;28;20042;-57
2023/05/02 05:24:05;;;;;;;8.18;2.28;;;;;;;;;;4995350;28;20045;-57
2023/05/02 05:26:31;;;;;;;13.20;2.80;;;;;;;;;;4993828;28;20042;-55
2023/05/02 05:28:58;;;;;;;13.57;3.92;;;;;;;;;;4995609;28;20590;-56
2023/05/02 05:31:24;;;;;;;12.13;2.67;;;;;;;;;;4995183;28;20076;-56
2023/05/02 05:33:50;;;;;;;9.43;2.40;;;;;;;;;;4994712;28;20050;-56
2023/05/02 05:36:16;;;;;;;11.48;2.90;;;;;;;;;;4994685;28;20204;-57
2023/05/02 05:38:43;;;;;;;9.82;3.00;;;;;;;;;;4994620;28;20030;-55
2023/05/02 05:41:09;;;;;;;12.98;3.60;;;8.40;99.90;;;;;;4995574;28;20097;-56
2023/05/02 05:43:36;;;;;;;7.90;2.38;;;;;;;;;;4994558;28;20073;-54
2023/05/02 05:46:02;;;;;;;9.65;2.53;;;8.60;99.90;;;;;;4995132;28;20100;-55
2023/05/02 05:48:28;;;;;;;9.55;2.50;;;;;;;;;;4993212;28;20049;-55
2023/05/02 05:50:54;;;;;;;9.48;2.58;;;8.50;99.90;;;;;;4994891;28;20492;-55
2023/05/02 05:53:20;;;;;;;11.13;2.53;;;;;;;;;;4994010;28;20100;-55
2023/05/02 05:55:46;;;;;;;7.18;2.75;;;8.70;99.50;;;;;;4995220;28;20046;-56
2023/05/02 05:58:12;;;;;;;8.52;2.85;;;;;;;;;;4994987;28;20132;-55
2023/05/02 06:00:39;;;;;;;7.70;3.03;;;;;;;;;;4994227;28;20057;-56
2023/05/02 06:03:05;;;;;;;8.20;3.08;;;;;;;;;;4995976;28;20081;-55
2023/05/02 06:05:32;;;;;;;8.43;2.65;;;;;;;;;;4995773;28;20036;-56
2023/05/02 06:07:58;;;;;;;12.75;3.42;;;;;;;;;;4991488;28;20758;-54
2023/05/02 06:10:24;;;;;;;12.20;3.45;;;;;;;;;;4994740;28;20248;-57
2023/05/02 06:12:50;;;;;;;10.55;2.67;;;;;;;;;;4991317;28;20041;-56
2023/05/02 06:15:16;;;;;;;9.18;2.60;;;9.00;58.00;;;;;;4993759;28;20558;-57
2023/05/02 06:17:42;;;;;;;15.95;2.42;;;;;;;;;;4992308;28;20132;-56
2023/05/02 06:20:08;;;;;;;10.00;2.90;;;;;;;;;;4994181;28;20050;-53
2023/05/02 06:22:34;;;;;;;7.95;2.35;;;;;;;;;;4993034;28;20424;-52
2023/05/02 06:25:00;;;;;;;11.82;2.88;;;9.00;31.90;;;;;;4990324;28;20061;-56
2023/05/02 06:27:27;;;;;;;11.52;2.63;;;;;;;;;;4994089;28;20038;-56
2023/05/02 06:29:53;;;;;;;9.50;2.55;;;;;;;;;;4994912;28;20091;-56
2023/05/02 06:32:20;;;;;;;10.57;3.35;;;;;;;;;;4994448;28;20104;-56
2023/05/02 06:34:46;;;;;;;13.90;3.25;;;9.00;15.90;;;;;;4993554;28;20100;-56
2023/05/02 06:37:12;;;;;;;8.52;3.55;;;;;;;;;;4993235;28;20569;-54
2023/05/02 06:39:38;;;;;;;7.65;2.47;;;;;;;;;;4993859;28;20060;-55
2023/05/02 06:42:03;;;;;;;9.88;3.00;;;;;;;;;;4977054;28;20045;-56
2023/05/02 06:44:29;;;;;;;8.65;2.65;;;9.30;28.50;;;;;;4994725;28;20077;-56
2023/05/02 06:46:55;;;;;;;8.27;2.90;;;9.20;32.50;;;;;;4993975;28;20466;-56
2023/05/02 06:49:21;;;;;;;8.85;2.42;;;;;;;;;;4994145;28;20088;-53
2023/05/02 06:51:47;;;;;;;7.28;2.50;;;9.40;28.10;;;;;;4994175;28;20050;-55
2023/05/02 06:54:16;;;;;;;6.78;2.65;;;;;;;;;;4994203;28;20450;-54
2023/05/02 06:56:42;;;;;;;9.82;3.03;;;9.10;20.10;;;;;;4992788;28;20038;-54
2023/05/02 06:59:07;;;;;;;8.07;2.83;;;9.10;32.70;;;;;;4994637;28;20369;-54
2023/05/02 07:01:33;;;;;;;7.60;2.47;;;;;;;;;;4993432;28;20180;-54
2023/05/02 07:04:03;;;;;;;7.50;3.15;;;;;;;;;;4992709;28;20050;-55
2023/05/02 07:06:29;;;;;;;9.95;3.03;;;;;;;;;;4993326;28;20046;-53
2023/05/02 07:08:55;;;;;;;8.50;2.42;;;9.20;34.60;;;;;;4992781;28;20057;-54
2023/05/02 07:11:23;;;;;;;9.82;2.63;;;8.70;28.30;;;;;;4992959;28;20038;-54
2023/05/02 07:13:49;;;;;;;10.82;3.35;;;;;;;;;;4993630;28;20395;-56
2023/05/02 07:16:15;;;;;;;12.70;2.83;;;;;;;;;;4991833;28;20087;-56
2023/05/02 07:18:44;;;;;;;10.05;3.40;;;;;;;;;;4993452;28;20403;-55
2023/05/02 07:21:10;;;;;;;8.48;2.60;;;;;;;;;;4994484;28;20592;-54
2023/05/02 07:23:36;;;;;;;7.93;2.38;;;9.70;27.10;;;;;;4993561;28;20053;-55
2023/05/02 07:26:02;;;;;;;12.13;3.55;;;9.50;25.80;;;;;;4993893;28;20091;-52
2023/05/02 07:28:28;;;;;;;8.43;2.38;;;;;;;;;;4993773;28;20081;-54
2023/05/02 07:30:54;;;;;;;7.80;2.80;;;;;;;;;;4997178;28;20054;-53
2023/05/02 07:33:20;;;;;;;7.70;2.40;;;10.00;29.70;;;;;;4998053;28;20038;-54
2023/05/02 07:35:46;;;;;;;8.50;2.47;;;;;;;;;;4996450;28;20041;-55
2023/05/02 07:38:12;;;;;;;7.97;2.45;;;;;;;;;;4996899;28;20038;-54
2023/05/02 07:40:38;;;;;;;7.53;2.78;;;10.30;19.60;;;;;;4997153;28;20049;-55
2023/05/02 07:43:04;;;;;;;8.48;2.05;;;;;;;;;;4996028;28;20405;-53
2023/05/02 07:45:30;;;;;;;7.25;2.53;;;;;;;;;;4997246;28;20068;-54
2023/05/02 07:47:55;;;;;;;8.10;2.60;;;10.40;12.40;;;;;;4996360;28;20447;-55
2023/05/02 07:50:22;;;;;;;7.50;2.20;;;;;;;;;;4996953;28;20086;-56
2023/05/02 07:52:48;;;;;;;8.73;1.95;;;;;;;;;;4996358;28;20448;-54
2023/05/02 07:55:14;;;;;;;11.25;2.55;;;;;;;;;;4997488;28;20423;-52
2023/05/02 07:57:40;;;;;;;8.35;2.33;;;;;;;;;;4995618;28;20060;-57
2023/05/02 08:00:08;;;;;;;5.32;1.98;;;;;;;;;;4996095;28;20053;-55
2023/05/02 08:02:38;;;;;;;8.05;2.47;;;;;;;;;;4996355;28;20137;-53
2023/05/02 08:05:04;;;;;;;10.40;2.47;;;10.60;1.00;;;;;;4995511;28;20053;-55
2023/05/02 08:07:32;;;;;;;11.30;3.53;;;;;;;;;;4995750;28;20041;-56
2023/05/02 08:09:58;;;;;;;6.50;1.90;;;;;;;;;;4995792;28;20537;-54
2023/05/02 08:12:24;;;;;;;9.05;1.92;;;;;;;;;;4995796;28;20508;-57
2023/05/02 08:14:51;;;;;;;8.82;2.90;;;;;;;;;;4995857;28;20474;-55
2023/05/02 08:17:16;;;;;;;8.55;2.25;;;10.80;1.00;;;;;;4996351;28;20320;-55
2023/05/02 08:19:42;;;;;;;4.88;1.52;;;10.80;1.00;;;;;;4995508;28;20038;-56
2023/05/02 08:22:08;;;;;;;5.15;1.67;;;;;;;;;;4996206;28;20125;-56
2023/05/02 08:24:34;;;;;;;4.95;1.65;;;10.90;1.00;;;;;;4996454;28;20053;-54
2023/05/02 08:27:01;;;;;;;6.50;1.90;;;10.90;1.00;;;;;;4994108;28;20049;-56
2023/05/02 08:29:27;;;;;;;7.30;2.00;;;10.90;1.00;;;;;;4994437;28;20053;-56
2023/05/02 08:31:53;;;;;;;5.28;1.80;;;;;;;;;;4995959;28;20038;-52
2023/05/02 08:34:18;;;;;;;7.40;1.73;;;11.10;1.00;;;;;;4989664;28;20467;-53
2023/05/02 08:36:44;;;;;;;7.68;1.58;;;;;;;;;;4994132;28;20061;-55
2023/05/02 08:39:11;;;;;;;8.57;2.10;;;;;;;;;;4996059;28;20573;-53
2023/05/02 08:41:37;;;;;;;8.32;1.70;;;;;;;;;;4994143;28;20045;-55
2023/05/02 08:44:04;;;;;;;5.95;1.30;;;11.00;1.00;;;;;;4995542;28;20046;-55
2023/05/02 08:46:31;;;;;;;7.90;1.80;;;;;;;;;;4995432;28;20049;-55
2023/05/02 08:49:00;;;;;;;6.38;1.58;;;10.90;1.00;;;;;;4996064;28;20614;-56
2023/05/02 08:51:27;;;;;;;6.53;1.60;;;;;;;;;;4990563;28;20449;-56
2023/05/02 08:53:54;;;;;;;5.82;1.83;;;;;;;;;;4996015;28;20152;-54
2023/05/02 08:56:20;;;;;;;6.55;1.55;;;;;;;;;;4995296;28;20395;-54
2023/05/02 08:58:46;;;;;;;6.00;1.30;;;;;;;;;;4995283;28;20569;-52
2023/05/02 09:01:13;;;;;;;6.97;1.70;;;11.00;1.00;;;;;;4995840;28;20041;-51
2023/05/02 09:03:40;;;;;;;6.38;1.67;;;;;;;;;;4994225;28;20376;-54
2023/05/02 09:06:07;;;;;;;4.93;1.40;;;;;;;;;;4995272;28;20038;-52
2023/05/02 09:08:34;;;;;;;6.03;1.90;;;;;;;;;;4995637;28;20045;-55
2023/05/02 09:11:02;;;;;;;8.50;1.52;;;;;;;;;;4994304;28;20777;-54
2023/05/02 09:13:32;;;;;;;7.47;1.40;;;;;;;;;;4995241;28;20602;-55
2023/05/02 09:15:59;;;;;;;5.40;1.50;;;11.20;1.00;;;;;;4992776;28;20050;-57
2023/05/02 09:18:27;;;;;;;5.70;1.60;;;;;;;;;;4994982;28;20033;-55
2023/05/02 09:20:53;;;;;;;4.55;1.42;;;11.80;1.00;;;;;;4992864;28;20053;-53
2023/05/02 09:23:19;;;;;;;8.43;1.90;;;11.70;1.00;;;;;;4994833;28;20037;-53
2023/05/02 09:25:45;;;;;;;5.72;1.73;;;11.70;1.00;;;;;;4993746;28;20265;-56
2023/05/02 09:28:11;;;;;;;6.03;1.60;;;;;;;;;;4980406;28;20042;-54
2023/05/02 09:30:37;;;;;;;6.90;1.30;;;;;;;;;;4995089;28;20037;-53
2023/05/02 09:33:03;;;;;;;6.15;1.70;;;12.20;1.00;;;;;;4992977;28;20132;-53
2023/05/02 09:35:28;;;;;;;5.88;1.52;;;11.90;1.00;;;;;;4994794;28;20084;-55
2023/05/02 09:37:58;;;;;;;7.85;1.65;;;;;;;;;;4993670;28;20328;-52
2023/05/02 09:40:26;;;;;;;5.32;1.38;;;12.10;1.00;;;;;;4994824;28;20309;-55
2023/05/02 09:42:51;;;;;;;5.20;1.33;;;12.10;1.00;;;;;;4993028;28;20046;-56
2023/05/02 09:45:21;;;;;;;6.35;1.90;;;;;;;;;;4995597;28;20054;-56
2023/05/02 09:47:48;;;;;;;6.70;1.23;;;;;;;;;;4990417;28;20042;-53
2023/05/02 09:50:33;;;;;;;5.25;1.40;;;;;;;;;;4995327;28;20046;-55
2023/05/02 09:53:03;;;;;;;3.95;1.10;;;;;;;;;;4982989;28;20057;-56
2023/05/02 09:55:30;;;;;;;4.00;1.20;;;;;;;;;;4988814;28;20499;-51
2023/05/02 09:57:56;;;;;;;7.32;1.38;;;;;;;;;;4992952;28;20484;-57
2023/05/02 10:00:23;;;;;;;6.32;1.50;;;;;;;;;;4994807;28;20092;-52
2023/05/02 10:02:50;;;;;;;4.72;1.77;;;11.40;1.00;;;;;;4993697;28;20038;-53
2023/05/02 10:05:16;;;;;;;5.90;1.40;;;11.70;1.00;;;;;;4994630;28;20446;-52
2023/05/02 10:07:46;;;;;;;7.00;1.77;;;;;;;;;;4993658;28;20052;-54
2023/05/02 10:10:14;;;;;;;4.68;1.42;;;;;;;;;;4994110;28;20053;-55
2023/05/02 10:12:40;;;;;;;5.05;1.40;;;;;;;;;;4994444;28;20121;-55
2023/05/02 10:15:07;;;;;;;7.93;1.50;;;;;;;;;;4994693;28;20042;-52
2023/05/02 10:17:40;;;;;;;9.00;1.65;;;;;;;;;;4993435;28;20057;-52
2023/05/02 10:20:07;;;;;;;5.47;1.50;;;11.90;1.00;;;;;;4993859;28;20050;-54
2023/05/02 10:22:35;;;;;;;4.93;1.90;;;12.30;1.00;;;;;;4994678;28;20417;-54
2023/05/02 10:25:02;;;;;;;5.97;1.50;;;;;;;;;;4992557;28;20330;-55
2023/05/02 10:27:30;;;;;;;5.97;2.63;;;;;;;;;;4993556;28;20045;-52
2023/05/02 10:29:57;;;;;;;6.75;1.60;;;;;;;;;;4994427;28;20409;-53
2023/05/02 10:32:24;;;;;;;5.88;1.42;;;;;;;;;;4994109;28;20446;-54
2023/05/02 10:34:51;;;;;;;6.75;1.75;;;;;;;;;;4994442;28;20593;-55
2023/05/02 10:37:17;;;;;;;5.90;1.60;;;;;;;;;;4994042;28;20053;-54
2023/05/02 10:39:45;;;;;;;5.32;1.65;;;;;;;;;;4994178;28;20038;-55
2023/05/02 10:42:12;;;;;;;9.05;1.85;;;12.10;1.00;;;;;;4994066;28;20270;-54
2023/05/02 10:44:39;;;;;;;5.10;1.75;;;;;;;;;;4993932;28;20054;-55
2023/05/02 10:47:21;;;;;;;7.40;1.90;;;;;;;;;;4991486;28;20046;-55
2023/05/02 10:49:51;;;;;;;8.40;1.45;;;;;;;;;;4994325;28;20293;-52
2023/05/02 10:52:29;;;;;;;4.63;1.65;;;;;;;;;;4987975;28;20069;-53
2023/05/02 10:55:18;;;;;;;9.70;1.80;;;;;;;;;;4994304;28;20423;-53
2023/05/02 10:58:07;;;;;;;4.80;1.42;;;;;;;;;;4989531;28;20112;-56
2023/05/02 11:00:33;;;;;;;6.55;1.60;;;;;;;;;;4990686;28;20053;-54
2023/05/02 11:03:00;;;;;;;6.70;1.50;;;;;;;;;;4995516;28;20496;-56
2023/05/02 11:05:26;;;;;;;6.28;1.65;;;;;;;;;;4997972;28;20534;-54
2023/05/02 11:08:11;;;;;;;7.07;1.75;;;;;;;;;;4996541;28;20480;-53
2023/05/02 11:10:37;;;;;;;5.07;1.88;;;11.90;1.00;;;;;;4994422;28;20236;-55
2023/05/02 11:13:03;;;;;;;5.13;1.58;;;;;;;;;;4998229;28;20046;-55
2023/05/02 11:15:34;;;;;;;4.07;1.25;;;12.40;1.00;;;;;;4997375;28;20041;-54
2023/05/02 11:18:00;;;;;;;6.82;1.60;;;12.40;1.00;;;;;;4991461;28;20065;-54
2023/05/02 11:20:27;;;;;;;6.50;1.42;;;;;;;;;;4997116;28;20499;-52
2023/05/02 11:22:54;;;;;;;5.35;1.50;;;;;;;;;;5012640;28;20137;-55
2023/05/02 11:25:36;;;;;;;5.68;1.33;;;;;;;;;;4993569;28;20411;-55
2023/05/02 11:28:03;;;;;;;4.90;1.30;;;;;;;;;;4995622;28;20056;-57
2023/05/02 11:30:38;;;;;;;6.32;1.50;;;;;;;;;;4997022;28;20410;-54
2023/05/02 11:33:03;;;;;;;4.00;1.20;;;12.80;1.00;;;;;;4997040;28;20053;-58
2023/05/02 11:35:30;;;;;;;5.40;1.40;;;;;;;;;;4996911;28;20042;-53
2023/05/02 11:38:00;;;;;;;5.13;1.55;;;12.90;1.00;;;;;;4995739;28;20321;-56
2023/05/02 11:40:27;;;;;;;5.38;1.55;;;;;;;;;;4997415;28;20077;-54
2023/05/02 11:42:54;;;;;;;7.60;1.42;;;13.20;1.00;;;;;;4997175;28;20038;-54
2023/05/02 11:45:20;;;;;;;5.65;1.60;;;13.50;1.00;;;;;;4994056;28;20065;-55
2023/05/02 11:47:50;;;;;;;7.78;1.60;;;;;;;;;;4993454;28;20517;-55
2023/05/02 11:50:17;;;;;;;6.65;1.95;;;13.30;1.00;;;;;;4997032;28;20062;-55
2023/05/02 11:52:43;;;;;;;5.05;1.48;;;;;;;;;;4997632;28;20214;-56
2023/05/02 11:55:13;;;;;;;5.50;1.30;;;;;;;;;;4997339;28;20049;-57
2023/05/02 11:57:39;;;;;;;5.82;1.85;;;12.70;1.00;;;;;;4978155;28;20046;-54
2023/05/02 12:00:15;;;;;;;9.90;1.70;;;13.40;1.00;;;;;;4997142;28;20053;-53
2023/05/02 12:02:41;;;;;;;4.70;1.27;;;13.40;1.00;;;;;;4996376;28;20080;-56
2023/05/02 12:05:09;;;;;;;6.80;1.55;;;;;;;;;;4997848;28;20046;-53
2023/05/02 12:07:41;;;;;;;3.78;1.27;;;13.50;1.00;;;;;;4996055;28;20133;-54
2023/05/02 12:10:08;;;;;;;6.28;1.48;;;13.60;1.00;;;;;;4995063;28;20115;-53
2023/05/02 12:12:35;;;;;;;5.13;1.52;;;13.80;1.00;;;;;;4996511;28;20046;-55
2023/05/02 12:15:07;;;;;;;6.25;1.40;;;;;;;;;;4994870;28;20348;-55
2023/05/02 12:17:42;;;;;;;8.23;1.52;;;;;;;;;;4995686;28;20204;-58
2023/05/02 12:20:09;;;;;;;4.93;1.40;;;;;;;;;;4995308;28;20459;-57
2023/05/02 12:22:35;;;;;;;5.85;1.45;;;;;;;;;;4995361;28;20046;-55
2023/05/02 12:25:02;;;;;;;4.50;1.33;;;13.00;1.00;;;;;;4995406;28;20132;-56
2023/05/02 12:27:28;;;;;;;5.40;1.40;;;13.10;1.00;;;;;;4994689;28;20478;-56
2023/05/02 12:29:56;;;;;;;4.13;1.15;;;13.50;1.00;;;;;;4995624;28;20569;-56
2023/05/02 12:32:29;;;;;;;7.78;1.42;;;;;;;;;;4988069;28;20169;-55
2023/05/02 12:34:55;;;;;;;5.22;1.10;;;;;;;;;;4994192;28;20057;-56
2023/05/02 12:37:25;;;;;;;4.18;1.05;;;13.20;1.00;;;;;;4985762;28;20038;-52
2023/05/02 12:39:52;;;;;;;3.40;1.13;;;13.00;1.00;;;;;;4995287;28;20521;-55
2023/05/02 12:42:19;;;;;;;5.75;1.27;;;;;;;;;;4994869;28;20041;-54
2023/05/02 12:44:47;;;;;;;4.25;1.48;;;13.00;1.00;;;;;;4995010;28;20045;-56
2023/05/02 12:47:14;;;;;;;6.00;1.00;;;13.00;1.00;;;;;;4992771;28;20056;-56
2023/05/02 12:49:57;;;;;;;4.82;1.10;;;;;;;;;;4994459;28;20704;-55
2023/05/02 12:52:41;;;;;;;4.57;1.48;;;;;;;;;;4989229;28;20042;-57
2023/05/02 12:55:24;;;;;;;4.70;1.20;;;13.30;1.00;;;;;;4993339;28;20050;-55
2023/05/02 12:57:58;;;;;;;7.13;1.25;;;13.30;1.00;;;;;;4992354;28;20042;-53
2023/05/02 13:00:24;;;;;;;4.18;1.20;;;;;;;;;;4994466;28;20038;-56
2023/05/02 13:02:50;;;;;;;7.82;1.50;;;13.00;1.00;;;;;;4994101;28;20034;-55
2023/05/02 13:05:16;;;;;;;6.72;1.58;;;;;;;;;;4993480;28;20681;-55
2023/05/02 13:07:42;;;;;;;5.75;1.10;;;13.40;1.00;;;;;;4993724;28;20360;-54
2023/05/02 13:10:08;;;;;;;4.28;1.67;;;14.40;1.00;;;;;;4994420;28;20452;-57
2023/05/02 13:12:36;;;;;;;3.92;1.00;;;14.60;1.00;;;;;;4994479;28;20476;-55
2023/05/02 13:15:06;;;;;;;3.78;1.40;;;14.80;1.00;;;;;;4994223;28;20104;-57
2023/05/02 13:17:32;;;;;;;4.00;1.25;;;14.20;1.00;;;;;;4992302;28;20750;-57
2023/05/02 13:19:58;;;;;;;8.20;2.08;;;13.80;1.00;;;;;;4994272;28;20060;-57
2023/05/02 13:22:24;;;;;;;6.10;1.40;;;;;;;;;;4993398;28;20535;-56
2023/05/02 13:24:51;;;;;;;6.20;1.27;;;13.50;1.00;;;;;;4994597;28;20060;-54
2023/05/02 13:27:17;;;;;;;5.03;1.35;;;14.20;1.00;;;;;;4993579;28;20041;-56
2023/05/02 13:29:45;;;;;;;4.75;1.10;;;14.60;1.00;;;;;;4994340;28;20518;-57
2023/05/02 13:32:11;;;;;;;2.70;1.00;;;13.90;1.00;;;;;;4992355;28;20041;-54
2023/05/02 13:34:37;;;;;;;4.30;1.02;;;14.50;1.00;;;;;;4994375;28;20462;-56
2023/05/02 13:37:02;;;;;;;3.95;1.00;;;14.30;1.00;;;;;;4992968;28;20149;-54
2023/05/02 13:39:28;;;;;;;4.65;1.27;;;14.60;1.00;;;;;;4994384;28;20045;-54
2023/05/02 13:41:54;;;;;;;5.30;1.10;;;15.40;1.00;;;;;;4992882;28;20046;-55
2023/05/02 13:44:19;;;;;;;6.80;1.15;;;15.80;1.00;;;;;;4986492;28;20042;-56
2023/05/02 13:46:46;;;;;;;5.68;1.40;;;18.70;1.00;;;;;;4985321;28;20041;-56
2023/05/02 13:49:12;;;;;;;4.13;1.20;;;20.10;1.00;;;;;;4978377;28;20049;-55
2023/05/02 13:51:38;;;;;;;5.20;1.20;;;19.70;1.00;;;;;;4987631;28;20467;-56
2023/05/02 13:54:05;;;;;;;4.50;1.30;;;18.90;1.00;;;;;;4979840;28;20060;-57
2023/05/02 13:56:30;;;;;;;4.03;1.27;;;18.10;1.00;;;;;;4986028;28;20046;-56
2023/05/02 13:58:56;;;;;;;9.27;1.50;;;17.00;1.00;;;;;;4987334;28;20065;-55
2023/05/02 14:01:22;;;;;;;5.90;1.13;;;16.10;1.00;;;;;;4987774;28;20038;-55